This is the latest recevied weather packets stored in our database for station/object W1GK. If no packets are shown the sender has not sent any weather packets the latest 10 day(s).
| Time | Temp. | Humidity | Pressure | Rain* | Wind** | Luminosity | Snow |
|---|---|---|---|---|---|---|---|
| 1777517998 | 23.89° C | 14% | 1012.9 hPa | 0 mm | - | 0 W/m² | - |
| 1777517399 | 23.89° C | 15% | 1012.7 hPa | 0 mm | - | 0 W/m² | - |
| 1777516799 | 24.44° C | 15% | 1012.6 hPa | 0 mm | - | 0 W/m² | - |
| 1777516198 | 24.44° C | 15% | 1012.5 hPa | 0 mm | - | 0 W/m² | - |
| 1777515597 | 25° C | 13% | 1012.3 hPa | 0 mm | - | 7 W/m² | - |
| 1777514998 | 25° C | 13% | 1012.3 hPa | 0 mm | - | 12 W/m² | - |
| 1777514399 | 25.56° C | 13% | 1012.2 hPa | 0 mm | - | 16 W/m² | - |
| 1777513799 | 25.56° C | 12% | 1012.2 hPa | 0 mm | - | 19 W/m² | - |
| 1777513199 | 25.56° C | 12% | 1012.1 hPa | 0 mm | - | 23 W/m² | - |
| 1777512597 | 26.11° C | 12% | 1012.2 hPa | 0 mm | - | 139 W/m² | - |
| 1777511998 | 26.67° C | 11% | 1012.2 hPa | 0 mm | - | 171 W/m² | - |
| 1777511398 | 27.22° C | 11% | 1012.3 hPa | 0 mm | - | 200 W/m² | - |
| 1777510799 | 27.22° C | 11% | 1012.4 hPa | 0 mm | - | 229 W/m² | - |
| 1777510199 | 27.22° C | 11% | 1012.4 hPa | 0 mm | - | 260 W/m² | - |
| 1777509599 | 27.78° C | 11% | 1012.5 hPa | 0 mm | - | 294 W/m² | - |
| 1777509000 | 27.22° C | 11% | 1012.6 hPa | 0 mm | - | 327 W/m² | - |
| 1777508398 | 27.22° C | 11% | 1012.6 hPa | 0 mm | - | 357 W/m² | - |
| 1777507799 | 26.67° C | 11% | 1012.6 hPa | 0 mm | - | 390 W/m² | - |
| 1777507202 | 26.67° C | 11% | 1012.7 hPa | 0 mm | - | 425 W/m² | - |
| 1777506599 | 27.22° C | 12% | 1012.9 hPa | 0 mm | - | 455 W/m² | - |
| 1777505999 | 27.22° C | 12% | 1013 hPa | 0 mm | - | 487 W/m² | - |
| 1777505399 | 27.78° C | 11% | 1013 hPa | 0 mm | - | 517 W/m² | - |
| 1777504798 | 27.78° C | 11% | 1013 hPa | 0 mm | - | 547 W/m² | - |
| 1777504199 | 27.78° C | 12% | 1013.2 hPa | 0 mm | - | 575 W/m² | - |
| 1777503602 | 28.33° C | 12% | 1013.4 hPa | 0 mm | - | 603 W/m² | - |
* Rain latest hour (hover to see other rain measurements)
** Current wind speed in m/s (hover to see current wind gust speed)